createdAt,value
2022-09-06T04:53:12.148Z,18.20
2022-09-06T04:58:14.069Z,18.20
2022-09-06T05:03:15.980Z,18.10
2022-09-06T05:08:17.932Z,18.10
2022-09-06T05:13:19.837Z,18.10
2022-09-06T05:18:21.711Z,18.10
2022-09-06T05:23:30.287Z,18.00
2022-09-06T05:28:32.228Z,18.00
2022-09-06T05:33:34.363Z,18.00
2022-09-06T05:38:36.213Z,18.00
2022-09-06T05:43:38.081Z,18.00
2022-09-06T05:48:40.095Z,18.00
2022-09-06T05:53:44.585Z,18.10
2022-09-06T05:58:46.546Z,18.10
2022-09-06T06:04:00.368Z,18.10
2022-09-06T06:09:02.299Z,18.00
2022-09-06T06:14:04.592Z,18.10
2022-09-06T06:19:06.392Z,18.10
2022-09-06T06:24:08.437Z,18.10
2022-09-06T06:29:10.470Z,18.10
2022-09-06T06:34:12.353Z,18.10
2022-09-06T06:39:14.373Z,18.00
2022-09-06T06:44:16.427Z,18.10
2022-09-06T06:49:18.247Z,18.10
2022-09-06T06:54:20.228Z,18.10
2022-09-06T06:59:22.163Z,18.10
2022-09-06T07:04:30.030Z,18.20
2022-09-06T07:14:57.227Z,18.30
2022-09-06T07:20:15.117Z,18.40
2022-09-06T07:25:21.166Z,18.50
2022-09-06T07:30:23.433Z,18.60
2022-09-06T07:35:26.552Z,18.70
2022-09-06T07:40:32.447Z,18.80
2022-09-06T07:45:35.660Z,18.90
2022-09-06T07:50:55.918Z,19.00
2022-09-06T07:56:03.646Z,19.20
2022-09-06T08:01:33.047Z,19.30
2022-09-06T08:11:58.886Z,19.60
2022-09-06T08:17:01.019Z,19.70
2022-09-06T08:22:02.898Z,19.80
2022-09-06T08:27:07.765Z,20.00
2022-09-06T08:32:11.117Z,20.10
2022-09-06T08:37:13.053Z,20.30
2022-09-06T08:42:14.881Z,20.40
2022-09-06T08:47:18.946Z,20.60
2022-09-06T08:53:16.240Z,20.70
2022-09-06T08:58:42.352Z,20.80
2022-09-06T09:03:44.843Z,21.00
2022-09-06T09:09:01.934Z,21.10
2022-09-06T09:14:18.951Z,21.20
2022-09-06T09:19:20.900Z,21.30
2022-09-06T09:24:24.387Z,21.40
2022-09-06T09:29:29.524Z,21.50
2022-09-06T09:34:37.750Z,21.70
2022-09-06T09:39:40.271Z,21.80
2022-09-06T09:44:45.523Z,22.00
2022-09-06T09:49:47.371Z,22.10
2022-09-06T09:54:53.992Z,22.20
2022-09-06T09:59:58.314Z,22.40
2022-09-06T10:05:09.354Z,22.60
2022-09-06T10:10:14.256Z,22.80
2022-09-06T10:15:36.046Z,23.00
2022-09-06T10:20:57.022Z,23.20
2022-09-06T10:26:42.248Z,23.50
2022-09-06T10:32:09.252Z,23.80
2022-09-06T10:37:34.252Z,24.10
2022-09-06T10:42:43.110Z,24.20
2022-09-06T10:47:53.380Z,24.20
2022-09-06T10:52:56.313Z,24.50
2022-09-06T10:58:20.578Z,24.90
2022-09-06T11:09:00.460Z,25.60
2022-09-06T11:14:07.676Z,26.00
2022-09-06T11:19:17.590Z,26.30
2022-09-06T11:24:40.892Z,26.60
2022-09-06T11:29:45.721Z,26.90
2022-09-06T11:34:58.066Z,27.20
2022-09-06T11:40:27.119Z,27.50
2022-09-06T11:45:48.442Z,27.80
2022-09-06T11:50:59.586Z,28.10
2022-09-06T11:56:01.591Z,28.30
2022-09-06T12:01:30.172Z,28.50
2022-09-06T12:06:44.064Z,28.60
2022-09-06T12:11:46.236Z,28.80
2022-09-06T12:17:08.022Z,28.90
2022-09-06T12:22:37.023Z,29.10
2022-09-06T12:27:44.327Z,29.20
2022-09-06T12:32:49.673Z,29.30
2022-09-06T12:37:54.917Z,29.50
2022-09-06T12:42:59.519Z,29.70
2022-09-06T12:48:08.652Z,29.90
2022-09-06T12:53:23.632Z,30.00
2022-09-06T12:58:29.515Z,30.10
2022-09-06T13:03:32.757Z,30.30
2022-09-06T13:08:39.181Z,30.40
2022-09-06T13:13:48.904Z,30.50
2022-09-06T13:18:51.089Z,30.70
2022-09-06T13:23:53.501Z,30.80
2022-09-06T13:28:55.406Z,30.90
2022-09-06T13:34:00.307Z,30.90
2022-09-06T13:39:04.057Z,30.90
2022-09-06T13:44:15.967Z,30.70
2022-09-06T13:49:17.810Z,30.70
2022-09-06T13:54:20.189Z,30.70
2022-09-06T13:59:25.220Z,30.70
2022-09-06T14:04:27.212Z,30.70
2022-09-06T14:09:29.765Z,30.50
2022-09-06T14:14:31.680Z,30.20
2022-09-06T14:19:33.505Z,29.90
2022-09-06T14:24:35.511Z,29.60
2022-09-06T14:29:37.360Z,29.50
2022-09-06T14:34:39.178Z,29.50
2022-09-06T14:39:41.086Z,29.50
2022-09-06T14:44:42.945Z,29.70
2022-09-06T14:49:44.787Z,29.80
2022-09-06T14:54:46.660Z,30.00
2022-09-06T14:59:48.545Z,30.00
2022-09-06T15:04:50.389Z,29.80
2022-09-06T15:09:52.276Z,29.80
2022-09-06T15:14:54.121Z,29.80
2022-09-06T15:19:56.494Z,29.60
2022-09-06T15:24:58.386Z,29.30
2022-09-06T15:30:00.251Z,29.20
2022-09-06T15:35:04.623Z,29.00
2022-09-06T15:40:07.419Z,28.60
2022-09-06T15:45:10.115Z,28.40
2022-09-06T15:50:11.978Z,28.20
2022-09-06T15:55:32.428Z,27.90
2022-09-06T16:00:34.364Z,27.60
2022-09-06T16:10:58.891Z,27.00
2022-09-06T16:16:03.995Z,26.80
2022-09-06T16:21:18.710Z,26.60
2022-09-06T16:26:21.846Z,26.40
2022-09-06T16:31:23.959Z,26.10
2022-09-06T16:36:26.993Z,26.00
2022-09-06T16:41:43.212Z,26.00
2022-09-06T16:46:49.429Z,25.90
2022-09-06T16:51:51.324Z,25.80
2022-09-06T16:56:54.053Z,25.70
2022-09-06T17:01:56.346Z,25.60
2022-09-06T17:06:59.164Z,25.50
2022-09-06T17:12:01.248Z,25.50
2022-09-06T17:17:06.226Z,25.40
2022-09-06T17:22:10.534Z,25.40
2022-09-06T17:27:12.610Z,25.30
2022-09-06T17:32:14.538Z,25.20
2022-09-06T17:37:19.288Z,25.20
2022-09-06T17:42:23.727Z,25.10
2022-09-06T17:47:28.596Z,25.10
2022-09-06T17:52:30.653Z,25.00
2022-09-06T17:57:32.820Z,24.90
2022-09-06T18:02:34.875Z,24.70
2022-09-06T18:07:36.780Z,24.50
2022-09-06T18:12:39.162Z,24.40
2022-09-06T18:17:41.208Z,24.30
2022-09-06T18:22:43.252Z,24.30
2022-09-06T18:27:46.642Z,24.20
2022-09-06T18:32:48.796Z,24.10
2022-09-06T18:37:50.831Z,24.10
2022-09-06T18:42:52.845Z,24.00
2022-09-06T18:47:55.153Z,23.90
2022-09-06T18:52:58.999Z,23.90
2022-09-06T18:58:01.324Z,23.80
2022-09-06T19:03:03.920Z,23.70
2022-09-06T19:08:05.834Z,23.70
2022-09-06T19:13:07.864Z,23.70
2022-09-06T19:18:09.817Z,23.60
2022-09-06T19:23:12.014Z,23.60
